sensor_id;sensor_type;location;lat;lon;timestamp;temperature;humidity
23729;DHT22;12045;60.214;24.724;2023-09-18T00:01:09;8.60;99.90
23729;DHT22;12045;60.214;24.724;2023-09-18T00:03:37;8.50;99.90
23729;DHT22;12045;60.214;24.724;2023-09-18T00:06:04;8.40;99.90
23729;DHT22;12045;60.214;24.724;2023-09-18T00:08:32;8.40;99.90
23729;DHT22;12045;60.214;24.724;2023-09-18T00:11:00;8.30;99.90
23729;DHT22;12045;60.214;24.724;2023-09-18T00:13:30;8.20;99.90
23729;DHT22;12045;60.214;24.724;2023-09-18T00:15:58;8.20;99.90
23729;DHT22;12045;60.214;24.724;2023-09-18T00:18:26;8.30;99.90
23729;DHT22;12045;60.214;24.724;2023-09-18T00:20:54;8.30;99.90
23729;DHT22;12045;60.214;24.724;2023-09-18T00:23:21;8.20;99.90
23729;DHT22;12045;60.214;24.724;2023-09-18T00:25:49;8.20;99.90
23729;DHT22;12045;60.214;24.724;2023-09-18T00:28:17;8.10;99.90
23729;DHT22;12045;60.214;24.724;2023-09-18T00:30:48;8.00;99.90
23729;DHT22;12045;60.214;24.724;2023-09-18T00:33:17;8.00;99.90
23729;DHT22;12045;60.214;24.724;2023-09-18T00:35:51;8.00;99.90
23729;DHT22;12045;60.214;24.724;2023-09-18T00:38:21;7.90;99.90
23729;DHT22;12045;60.214;24.724;2023-09-18T00:40:49;7.80;99.90
23729;DHT22;12045;60.214;24.724;2023-09-18T00:43:17;7.80;99.90
23729;DHT22;12045;60.214;24.724;2023-09-18T00:45:46;7.70;99.90
23729;DHT22;12045;60.214;24.724;2023-09-18T00:48:15;7.70;99.90
23729;DHT22;12045;60.214;24.724;2023-09-18T00:50:44;7.70;99.90
23729;DHT22;12045;60.214;24.724;2023-09-18T00:53:17;7.80;99.90
23729;DHT22;12045;60.214;24.724;2023-09-18T00:55:45;7.80;99.90
23729;DHT22;12045;60.214;24.724;2023-09-18T00:58:13;7.90;99.90
23729;DHT22;12045;60.214;24.724;2023-09-18T01:00:41;7.90;99.90
23729;DHT22;12045;60.214;24.724;2023-09-18T01:03:08;8.00;99.90
23729;DHT22;12045;60.214;24.724;2023-09-18T01:05:36;8.00;99.90
23729;DHT22;12045;60.214;24.724;2023-09-18T01:08:04;8.00;99.90
23729;DHT22;12045;60.214;24.724;2023-09-18T01:10:36;7.80;99.90
23729;DHT22;12045;60.214;24.724;2023-09-18T01:13:12;7.80;99.90
23729;DHT22;12045;60.214;24.724;2023-09-18T01:15:57;7.80;99.90
23729;DHT22;12045;60.214;24.724;2023-09-18T01:18:25;7.80;99.90
23729;DHT22;12045;60.214;24.724;2023-09-18T01:20:53;7.80;99.90
23729;DHT22;12045;60.214;24.724;2023-09-18T01:23:20;7.80;99.90
23729;DHT22;12045;60.214;24.724;2023-09-18T01:25:48;7.70;99.90
23729;DHT22;12045;60.214;24.724;2023-09-18T01:28:16;7.60;99.90
23729;DHT22;12045;60.214;24.724;2023-09-18T01:30:44;7.60;99.90
23729;DHT22;12045;60.214;24.724;2023-09-18T01:33:12;7.60;99.90
23729;DHT22;12045;60.214;24.724;2023-09-18T01:35:41;7.50;99.90
23729;DHT22;12045;60.214;24.724;2023-09-18T01:38:10;7.60;99.90
23729;DHT22;12045;60.214;24.724;2023-09-18T01:40:39;7.60;99.90
23729;DHT22;12045;60.214;24.724;2023-09-18T01:43:06;7.70;99.90
23729;DHT22;12045;60.214;24.724;2023-09-18T01:45:34;7.70;99.90
23729;DHT22;12045;60.214;24.724;2023-09-18T01:48:05;7.70;99.90
23729;DHT22;12045;60.214;24.724;2023-09-18T01:50:33;7.70;99.90
23729;DHT22;12045;60.214;24.724;2023-09-18T01:53:01;7.80;99.90
23729;DHT22;12045;60.214;24.724;2023-09-18T01:55:28;7.80;99.90
23729;DHT22;12045;60.214;24.724;2023-09-18T01:57:56;7.80;99.90
23729;DHT22;12045;60.214;24.724;2023-09-18T02:00:24;7.90;99.90
23729;DHT22;12045;60.214;24.724;2023-09-18T02:02:52;8.00;99.90
23729;DHT22;12045;60.214;24.724;2023-09-18T02:05:41;8.00;99.90
23729;DHT22;12045;60.214;24.724;2023-09-18T02:08:09;8.10;99.90
23729;DHT22;12045;60.214;24.724;2023-09-18T02:10:37;8.20;99.90
23729;DHT22;12045;60.214;24.724;2023-09-18T02:13:05;8.10;99.90
23729;DHT22;12045;60.214;24.724;2023-09-18T02:15:33;8.10;99.90
23729;DHT22;12045;60.214;24.724;2023-09-18T02:18:03;8.10;99.90
23729;DHT22;12045;60.214;24.724;2023-09-18T02:20:31;8.00;99.90
23729;DHT22;12045;60.214;24.724;2023-09-18T02:23:06;7.90;99.90
23729;DHT22;12045;60.214;24.724;2023-09-18T02:25:35;7.90;99.90
23729;DHT22;12045;60.214;24.724;2023-09-18T02:28:03;8.00;99.90
23729;DHT22;12045;60.214;24.724;2023-09-18T02:30:30;7.90;99.90
23729;DHT22;12045;60.214;24.724;2023-09-18T02:32:58;7.90;99.90
23729;DHT22;12045;60.214;24.724;2023-09-18T02:35:27;7.80;99.90
23729;DHT22;12045;60.214;24.724;2023-09-18T02:37:54;7.80;99.90
23729;DHT22;12045;60.214;24.724;2023-09-18T02:40:22;7.90;99.90
23729;DHT22;12045;60.214;24.724;2023-09-18T02:42:49;8.00;99.90
23729;DHT22;12045;60.214;24.724;2023-09-18T02:45:17;8.00;99.90
23729;DHT22;12045;60.214;24.724;2023-09-18T02:47:45;8.10;99.90
23729;DHT22;12045;60.214;24.724;2023-09-18T02:50:12;8.20;99.90
23729;DHT22;12045;60.214;24.724;2023-09-18T02:52:40;8.20;99.90
23729;DHT22;12045;60.214;24.724;2023-09-18T02:55:07;8.10;99.90
23729;DHT22;12045;60.214;24.724;2023-09-18T02:57:37;8.00;99.90
23729;DHT22;12045;60.214;24.724;2023-09-18T03:00:05;8.00;99.90
23729;DHT22;12045;60.214;24.724;2023-09-18T03:02:33;8.10;99.90
23729;DHT22;12045;60.214;24.724;2023-09-18T03:05:01;8.10;99.90
23729;DHT22;12045;60.214;24.724;2023-09-18T03:07:30;8.10;99.90
23729;DHT22;12045;60.214;24.724;2023-09-18T03:09:57;8.10;99.90
23729;DHT22;12045;60.214;24.724;2023-09-18T03:12:25;8.00;99.90
23729;DHT22;12045;60.214;24.724;2023-09-18T03:14:52;7.90;99.90
23729;DHT22;12045;60.214;24.724;2023-09-18T03:17:19;7.80;99.90
23729;DHT22;12045;60.214;24.724;2023-09-18T03:19:48;7.60;99.90
23729;DHT22;12045;60.214;24.724;2023-09-18T03:22:17;7.60;99.90
23729;DHT22;12045;60.214;24.724;2023-09-18T03:24:44;7.60;99.90
23729;DHT22;12045;60.214;24.724;2023-09-18T03:27:12;7.70;99.90
23729;DHT22;12045;60.214;24.724;2023-09-18T03:29:39;7.80;99.90
23729;DHT22;12045;60.214;24.724;2023-09-18T03:32:07;7.80;99.90
23729;DHT22;12045;60.214;24.724;2023-09-18T03:34:39;7.80;99.90
23729;DHT22;12045;60.214;24.724;2023-09-18T03:37:09;7.80;99.90
23729;DHT22;12045;60.214;24.724;2023-09-18T03:39:37;7.70;99.90
23729;DHT22;12045;60.214;24.724;2023-09-18T03:42:05;7.70;99.90
23729;DHT22;12045;60.214;24.724;2023-09-18T03:44:32;7.80;99.90
23729;DHT22;12045;60.214;24.724;2023-09-18T03:46:59;7.80;99.90
23729;DHT22;12045;60.214;24.724;2023-09-18T03:49:28;7.70;99.90
23729;DHT22;12045;60.214;24.724;2023-09-18T03:51:57;7.60;99.90
23729;DHT22;12045;60.214;24.724;2023-09-18T03:54:24;7.50;99.90
23729;DHT22;12045;60.214;24.724;2023-09-18T03:56:52;7.50;99.90
23729;DHT22;12045;60.214;24.724;2023-09-18T03:59:19;7.40;99.90
23729;DHT22;12045;60.214;24.724;2023-09-18T04:01:47;7.40;99.90
23729;DHT22;12045;60.214;24.724;2023-09-18T04:04:15;7.40;99.90
23729;DHT22;12045;60.214;24.724;2023-09-18T04:06:44;7.30;99.90
23729;DHT22;12045;60.214;24.724;2023-09-18T04:09:13;7.40;99.90
23729;DHT22;12045;60.214;24.724;2023-09-18T04:11:42;7.40;99.90
23729;DHT22;12045;60.214;24.724;2023-09-18T04:14:10;7.40;99.90
23729;DHT22;12045;60.214;24.724;2023-09-18T04:16:37;7.40;99.90
23729;DHT22;12045;60.214;24.724;2023-09-18T04:19:07;7.50;99.90
23729;DHT22;12045;60.214;24.724;2023-09-18T04:21:35;7.50;99.90
23729;DHT22;12045;60.214;24.724;2023-09-18T04:24:03;7.60;99.90
23729;DHT22;12045;60.214;24.724;2023-09-18T04:26:31;7.60;99.90
23729;DHT22;12045;60.214;24.724;2023-09-18T04:29:00;7.60;99.90
23729;DHT22;12045;60.214;24.724;2023-09-18T04:31:28;7.60;99.90
23729;DHT22;12045;60.214;24.724;2023-09-18T04:33:55;7.50;99.90
23729;DHT22;12045;60.214;24.724;2023-09-18T04:36:23;7.50;99.90
23729;DHT22;12045;60.214;24.724;2023-09-18T04:38:52;7.50;99.90
23729;DHT22;12045;60.214;24.724;2023-09-18T04:41:20;7.60;99.90
23729;DHT22;12045;60.214;24.724;2023-09-18T04:43:48;7.60;99.90
23729;DHT22;12045;60.214;24.724;2023-09-18T04:46:16;7.60;99.90
23729;DHT22;12045;60.214;24.724;2023-09-18T04:48:43;7.70;99.90
23729;DHT22;12045;60.214;24.724;2023-09-18T04:51:11;7.70;99.90
23729;DHT22;12045;60.214;24.724;2023-09-18T04:53:39;7.80;99.90
23729;DHT22;12045;60.214;24.724;2023-09-18T04:56:09;7.90;99.90
23729;DHT22;12045;60.214;24.724;2023-09-18T04:58:38;7.90;99.90
23729;DHT22;12045;60.214;24.724;2023-09-18T05:01:06;8.00;99.90
23729;DHT22;12045;60.214;24.724;2023-09-18T05:03:34;8.00;99.90
23729;DHT22;12045;60.214;24.724;2023-09-18T05:06:07;8.00;99.90
23729;DHT22;12045;60.214;24.724;2023-09-18T05:08:36;8.50;99.90
23729;DHT22;12045;60.214;24.724;2023-09-18T05:11:05;8.10;99.90
23729;DHT22;12045;60.214;24.724;2023-09-18T05:13:32;8.10;99.90
23729;DHT22;12045;60.214;24.724;2023-09-18T05:16:00;8.20;99.90
23729;DHT22;12045;60.214;24.724;2023-09-18T05:18:28;8.20;99.90
23729;DHT22;12045;60.214;24.724;2023-09-18T05:20:56;8.20;99.90
23729;DHT22;12045;60.214;24.724;2023-09-18T05:23:24;8.20;99.90
23729;DHT22;12045;60.214;24.724;2023-09-18T05:25:54;8.30;99.90
23729;DHT22;12045;60.214;24.724;2023-09-18T05:28:22;8.30;99.90
23729;DHT22;12045;60.214;24.724;2023-09-18T05:30:50;8.30;99.90
23729;DHT22;12045;60.214;24.724;2023-09-18T05:33:17;8.40;99.90
23729;DHT22;12045;60.214;24.724;2023-09-18T05:35:45;8.40;99.90
23729;DHT22;12045;60.214;24.724;2023-09-18T05:38:14;8.50;99.90
23729;DHT22;12045;60.214;24.724;2023-09-18T05:40:42;8.50;99.90
23729;DHT22;12045;60.214;24.724;2023-09-18T05:43:11;8.60;99.90
23729;DHT22;12045;60.214;24.724;2023-09-18T05:45:40;8.60;99.90
23729;DHT22;12045;60.214;24.724;2023-09-18T05:48:08;8.70;99.90
23729;DHT22;12045;60.214;24.724;2023-09-18T05:50:36;8.80;99.90
23729;DHT22;12045;60.214;24.724;2023-09-18T05:53:04;8.90;99.90
23729;DHT22;12045;60.214;24.724;2023-09-18T05:55:33;8.90;99.90
23729;DHT22;12045;60.214;24.724;2023-09-18T05:58:03;9.00;99.90
23729;DHT22;12045;60.214;24.724;2023-09-18T06:00:34;9.10;99.90
23729;DHT22;12045;60.214;24.724;2023-09-18T06:03:04;9.10;99.90
23729;DHT22;12045;60.214;24.724;2023-09-18T06:05:33;9.20;99.90
23729;DHT22;12045;60.214;24.724;2023-09-18T06:08:02;9.20;99.90
23729;DHT22;12045;60.214;24.724;2023-09-18T06:10:29;9.30;99.90
23729;DHT22;12045;60.214;24.724;2023-09-18T06:12:57;9.40;99.90
23729;DHT22;12045;60.214;24.724;2023-09-18T06:15:26;9.40;99.90
23729;DHT22;12045;60.214;24.724;2023-09-18T06:17:54;9.50;99.90
23729;DHT22;12045;60.214;24.724;2023-09-18T06:20:23;9.60;99.90
23729;DHT22;12045;60.214;24.724;2023-09-18T06:22:51;9.70;99.90
23729;DHT22;12045;60.214;24.724;2023-09-18T06:25:18;9.80;99.90
23729;DHT22;12045;60.214;24.724;2023-09-18T06:27:48;9.90;99.90
23729;DHT22;12045;60.214;24.724;2023-09-18T06:30:15;10.10;99.90
23729;DHT22;12045;60.214;24.724;2023-09-18T06:32:43;10.10;99.90
23729;DHT22;12045;60.214;24.724;2023-09-18T06:35:12;10.30;99.90
23729;DHT22;12045;60.214;24.724;2023-09-18T06:37:40;10.40;99.90
23729;DHT22;12045;60.214;24.724;2023-09-18T06:40:08;10.40;99.90
23729;DHT22;12045;60.214;24.724;2023-09-18T06:42:37;10.60;99.90
23729;DHT22;12045;60.214;24.724;2023-09-18T06:45:06;10.70;99.90
23729;DHT22;12045;60.214;24.724;2023-09-18T06:47:37;10.90;99.90
23729;DHT22;12045;60.214;24.724;2023-09-18T06:50:05;11.10;99.90
23729;DHT22;12045;60.214;24.724;2023-09-18T06:52:33;11.20;99.90
23729;DHT22;12045;60.214;24.724;2023-09-18T06:55:01;11.30;99.90
23729;DHT22;12045;60.214;24.724;2023-09-18T06:57:29;11.50;99.90
23729;DHT22;12045;60.214;24.724;2023-09-18T06:59:56;11.60;99.90
23729;DHT22;12045;60.214;24.724;2023-09-18T07:02:24;11.80;99.90
23729;DHT22;12045;60.214;24.724;2023-09-18T07:04:52;11.90;99.90
23729;DHT22;12045;60.214;24.724;2023-09-18T07:07:21;12.10;99.90
23729;DHT22;12045;60.214;24.724;2023-09-18T07:09:53;12.10;99.90
23729;DHT22;12045;60.214;24.724;2023-09-18T07:12:31;12.10;99.90
23729;DHT22;12045;60.214;24.724;2023-09-18T07:15:03;12.20;99.90
23729;DHT22;12045;60.214;24.724;2023-09-18T07:17:33;12.40;99.90
23729;DHT22;12045;60.214;24.724;2023-09-18T07:20:01;12.40;99.90
23729;DHT22;12045;60.214;24.724;2023-09-18T07:22:35;12.50;99.90
23729;DHT22;12045;60.214;24.724;2023-09-18T07:25:04;12.50;99.90
23729;DHT22;12045;60.214;24.724;2023-09-18T07:27:32;12.50;99.90
23729;DHT22;12045;60.214;24.724;2023-09-18T07:29:59;12.50;99.90
23729;DHT22;12045;60.214;24.724;2023-09-18T07:32:27;12.50;99.90
23729;DHT22;12045;60.214;24.724;2023-09-18T07:35:06;12.70;99.90
23729;DHT22;12045;60.214;24.724;2023-09-18T07:37:36;12.90;99.90
23729;DHT22;12045;60.214;24.724;2023-09-18T07:40:06;13.10;99.90
23729;DHT22;12045;60.214;24.724;2023-09-18T07:42:34;13.20;99.90
23729;DHT22;12045;60.214;24.724;2023-09-18T07:45:03;13.20;99.90
23729;DHT22;12045;60.214;24.724;2023-09-18T07:47:31;12.80;99.90
23729;DHT22;12045;60.214;24.724;2023-09-18T07:49:59;13.20;99.90
23729;DHT22;12045;60.214;24.724;2023-09-18T07:52:28;13.20;99.90
23729;DHT22;12045;60.214;24.724;2023-09-18T07:54:55;13.30;99.90
23729;DHT22;12045;60.214;24.724;2023-09-18T07:57:26;13.30;99.90
23729;DHT22;12045;60.214;24.724;2023-09-18T07:59:55;13.30;99.90
23729;DHT22;12045;60.214;24.724;2023-09-18T08:02:23;13.30;99.90
23729;DHT22;12045;60.214;24.724;2023-09-18T08:04:50;13.40;99.90
23729;DHT22;12045;60.214;24.724;2023-09-18T08:07:21;13.50;99.90
23729;DHT22;12045;60.214;24.724;2023-09-18T08:09:48;13.40;99.90
23729;DHT22;12045;60.214;24.724;2023-09-18T08:12:16;13.40;99.90
23729;DHT22;12045;60.214;24.724;2023-09-18T08:14:44;13.40;99.90
23729;DHT22;12045;60.214;24.724;2023-09-18T08:17:11;13.50;99.90
23729;DHT22;12045;60.214;24.724;2023-09-18T08:19:39;13.60;99.90
23729;DHT22;12045;60.214;24.724;2023-09-18T08:22:08;13.70;99.90
23729;DHT22;12045;60.214;24.724;2023-09-18T08:24:35;13.70;99.90
23729;DHT22;12045;60.214;24.724;2023-09-18T08:27:04;13.70;99.90
23729;DHT22;12045;60.214;24.724;2023-09-18T08:29:31;13.80;99.90
23729;DHT22;12045;60.214;24.724;2023-09-18T08:31:59;13.90;99.90
23729;DHT22;12045;60.214;24.724;2023-09-18T08:34:26;13.80;99.90
23729;DHT22;12045;60.214;24.724;2023-09-18T08:36:55;13.90;99.90
23729;DHT22;12045;60.214;24.724;2023-09-18T08:39:23;13.90;99.90
23729;DHT22;12045;60.214;24.724;2023-09-18T08:41:51;14.00;99.90
23729;DHT22;12045;60.214;24.724;2023-09-18T08:44:27;14.20;99.90
23729;DHT22;12045;60.214;24.724;2023-09-18T08:46:55;14.30;99.90
23729;DHT22;12045;60.214;24.724;2023-09-18T08:49:24;14.40;99.90
23729;DHT22;12045;60.214;24.724;2023-09-18T08:51:54;14.40;99.90
23729;DHT22;12045;60.214;24.724;2023-09-18T08:54:22;14.40;99.90
23729;DHT22;12045;60.214;24.724;2023-09-18T08:56:54;14.50;99.90
23729;DHT22;12045;60.214;24.724;2023-09-18T08:59:25;14.50;99.90
23729;DHT22;12045;60.214;24.724;2023-09-18T09:01:54;14.40;99.90
23729;DHT22;12045;60.214;24.724;2023-09-18T09:04:23;14.40;99.90
23729;DHT22;12045;60.214;24.724;2023-09-18T09:06:51;14.40;99.90
23729;DHT22;12045;60.214;24.724;2023-09-18T09:09:19;14.50;99.90
23729;DHT22;12045;60.214;24.724;2023-09-18T09:11:50;14.40;99.90
23729;DHT22;12045;60.214;24.724;2023-09-18T09:14:18;14.30;99.90
23729;DHT22;12045;60.214;24.724;2023-09-18T09:16:51;14.30;99.90
23729;DHT22;12045;60.214;24.724;2023-09-18T09:19:27;14.40;99.90
23729;DHT22;12045;60.214;24.724;2023-09-18T09:21:58;14.50;99.90
23729;DHT22;12045;60.214;24.724;2023-09-18T09:24:41;14.40;99.90
23729;DHT22;12045;60.214;24.724;2023-09-18T09:27:12;14.40;99.90
23729;DHT22;12045;60.214;24.724;2023-09-18T09:29:58;14.40;99.90
23729;DHT22;12045;60.214;24.724;2023-09-18T09:32:31;14.30;99.90
23729;DHT22;12045;60.214;24.724;2023-09-18T09:35:00;14.30;99.90
23729;DHT22;12045;60.214;24.724;2023-09-18T09:37:32;14.30;99.90
23729;DHT22;12045;60.214;24.724;2023-09-18T09:40:03;14.40;99.90
23729;DHT22;12045;60.214;24.724;2023-09-18T09:42:41;14.40;99.90
23729;DHT22;12045;60.214;24.724;2023-09-18T09:45:14;14.50;99.90
23729;DHT22;12045;60.214;24.724;2023-09-18T09:47:46;14.50;99.90
23729;DHT22;12045;60.214;24.724;2023-09-18T09:50:15;14.50;99.90
23729;DHT22;12045;60.214;24.724;2023-09-18T09:52:47;14.60;99.90
23729;DHT22;12045;60.214;24.724;2023-09-18T09:57:55;14.80;99.90
23729;DHT22;12045;60.214;24.724;2023-09-18T10:00:31;14.80;99.90
23729;DHT22;12045;60.214;24.724;2023-09-18T10:03:01;15.00;99.90
23729;DHT22;12045;60.214;24.724;2023-09-18T10:05:31;15.30;99.90
23729;DHT22;12045;60.214;24.724;2023-09-18T10:08:06;15.70;99.90
23729;DHT22;12045;60.214;24.724;2023-09-18T10:10:47;16.20;99.90
23729;DHT22;12045;60.214;24.724;2023-09-18T10:13:41;16.60;99.90
23729;DHT22;12045;60.214;24.724;2023-09-18T10:16:11;17.20;99.90
23729;DHT22;12045;60.214;24.724;2023-09-18T10:18:58;17.40;99.90
23729;DHT22;12045;60.214;24.724;2023-09-18T10:21:41;17.10;99.20
23729;DHT22;12045;60.214;24.724;2023-09-18T10:24:25;17.60;99.90
23729;DHT22;12045;60.214;24.724;2023-09-18T10:26:58;17.90;98.10
23729;DHT22;12045;60.214;24.724;2023-09-18T10:29:27;18.00;98.20
23729;DHT22;12045;60.214;24.724;2023-09-18T10:31:58;18.40;97.60
23729;DHT22;12045;60.214;24.724;2023-09-18T10:34:26;18.80;95.50
23729;DHT22;12045;60.214;24.724;2023-09-18T10:36:56;19.00;94.70
23729;DHT22;12045;60.214;24.724;2023-09-18T10:39:25;18.80;93.70
23729;DHT22;12045;60.214;24.724;2023-09-18T10:42:01;18.70;94.70
23729;DHT22;12045;60.214;24.724;2023-09-18T10:44:30;18.80;95.10
23729;DHT22;12045;60.214;24.724;2023-09-18T10:51:57;19.90;99.90
23729;DHT22;12045;60.214;24.724;2023-09-18T11:02:04;20.20;99.20
23729;DHT22;12045;60.214;24.724;2023-09-18T11:04:34;20.30;95.80
23729;DHT22;12045;60.214;24.724;2023-09-18T11:07:05;20.40;87.20
23729;DHT22;12045;60.214;24.724;2023-09-18T11:09:42;20.50;86.50
23729;DHT22;12045;60.214;24.724;2023-09-18T11:12:11;20.80;83.20
23729;DHT22;12045;60.214;24.724;2023-09-18T11:17:38;19.60;84.40
23729;DHT22;12045;60.214;24.724;2023-09-18T11:22:57;19.40;86.60
23729;DHT22;12045;60.214;24.724;2023-09-18T11:28:04;19.00;88.10
23729;DHT22;12045;60.214;24.724;2023-09-18T11:30:36;18.50;95.70
23729;DHT22;12045;60.214;24.724;2023-09-18T11:33:05;18.60;91.90
23729;DHT22;12045;60.214;24.724;2023-09-18T11:35:34;18.90;91.40
23729;DHT22;12045;60.214;24.724;2023-09-18T11:38:06;19.40;91.80
23729;DHT22;12045;60.214;24.724;2023-09-18T11:40:35;19.50;92.00
23729;DHT22;12045;60.214;24.724;2023-09-18T11:43:28;19.90;91.80
23729;DHT22;12045;60.214;24.724;2023-09-18T11:46:00;19.80;91.80
23729;DHT22;12045;60.214;24.724;2023-09-18T11:48:30;19.70;91.60
23729;DHT22;12045;60.214;24.724;2023-09-18T11:51:01;19.30;92.10
23729;DHT22;12045;60.214;24.724;2023-09-18T11:53:35;19.10;92.30
23729;DHT22;12045;60.214;24.724;2023-09-18T11:56:10;18.80;92.80
23729;DHT22;12045;60.214;24.724;2023-09-18T11:58:46;18.50;93.60
23729;DHT22;12045;60.214;24.724;2023-09-18T12:01:14;18.00;94.90
23729;DHT22;12045;60.214;24.724;2023-09-18T12:03:43;18.00;95.40
23729;DHT22;12045;60.214;24.724;2023-09-18T12:06:11;18.00;96.20
23729;DHT22;12045;60.214;24.724;2023-09-18T12:08:43;18.20;96.40
23729;DHT22;12045;60.214;24.724;2023-09-18T12:11:11;17.90;96.50
23729;DHT22;12045;60.214;24.724;2023-09-18T12:13:55;17.70;97.00
23729;DHT22;12045;60.214;24.724;2023-09-18T12:16:23;17.30;98.20
23729;DHT22;12045;60.214;24.724;2023-09-18T12:18:51;17.10;98.90
23729;DHT22;12045;60.214;24.724;2023-09-18T12:21:19;17.00;99.00
23729;DHT22;12045;60.214;24.724;2023-09-18T12:23:46;16.70;99.00
23729;DHT22;12045;60.214;24.724;2023-09-18T12:26:15;16.50;99.00
23729;DHT22;12045;60.214;24.724;2023-09-18T12:28:45;16.30;99.30
23729;DHT22;12045;60.214;24.724;2023-09-18T12:31:13;16.00;99.90
23729;DHT22;12045;60.214;24.724;2023-09-18T12:33:43;15.80;99.90
23729;DHT22;12045;60.214;24.724;2023-09-18T12:36:11;15.70;99.90
23729;DHT22;12045;60.214;24.724;2023-09-18T12:38:41;15.70;99.90
23729;DHT22;12045;60.214;24.724;2023-09-18T12:41:11;15.50;99.90
23729;DHT22;12045;60.214;24.724;2023-09-18T12:43:42;15.60;99.90
23729;DHT22;12045;60.214;24.724;2023-09-18T12:46:11;15.60;99.90
23729;DHT22;12045;60.214;24.724;2023-09-18T12:48:39;15.50;99.90
23729;DHT22;12045;60.214;24.724;2023-09-18T12:51:14;15.60;99.90
23729;DHT22;12045;60.214;24.724;2023-09-18T12:53:42;15.50;99.90
23729;DHT22;12045;60.214;24.724;2023-09-18T12:56:13;15.40;99.90
23729;DHT22;12045;60.214;24.724;2023-09-18T12:58:41;15.40;99.90
23729;DHT22;12045;60.214;24.724;2023-09-18T13:01:32;15.70;99.90
23729;DHT22;12045;60.214;24.724;2023-09-18T13:04:00;15.40;99.90
23729;DHT22;12045;60.214;24.724;2023-09-18T13:06:33;15.40;99.90
23729;DHT22;12045;60.214;24.724;2023-09-18T13:09:17;15.30;99.90
23729;DHT22;12045;60.214;24.724;2023-09-18T13:11:57;15.50;99.90
23729;DHT22;12045;60.214;24.724;2023-09-18T13:14:25;15.20;99.90
23729;DHT22;12045;60.214;24.724;2023-09-18T13:19:21;15.20;99.90
23729;DHT22;12045;60.214;24.724;2023-09-18T13:21:50;15.20;99.90
23729;DHT22;12045;60.214;24.724;2023-09-18T13:24:40;15.10;99.90
23729;DHT22;12045;60.214;24.724;2023-09-18T13:27:10;15.10;99.90
23729;DHT22;12045;60.214;24.724;2023-09-18T13:29:38;15.10;99.90
23729;DHT22;12045;60.214;24.724;2023-09-18T13:32:06;15.10;99.90
23729;DHT22;12045;60.214;24.724;2023-09-18T13:34:34;15.00;99.90
23729;DHT22;12045;60.214;24.724;2023-09-18T13:37:01;14.90;99.90
23729;DHT22;12045;60.214;24.724;2023-09-18T13:39:30;14.90;99.90
23729;DHT22;12045;60.214;24.724;2023-09-18T13:41:58;14.80;99.90
23729;DHT22;12045;60.214;24.724;2023-09-18T13:44:27;14.80;99.90
23729;DHT22;12045;60.214;24.724;2023-09-18T13:46:54;14.80;99.90
23729;DHT22;12045;60.214;24.724;2023-09-18T13:49:22;14.70;99.90
23729;DHT22;12045;60.214;24.724;2023-09-18T13:51:53;14.70;99.90
23729;DHT22;12045;60.214;24.724;2023-09-18T13:54:21;14.70;99.90
23729;DHT22;12045;60.214;24.724;2023-09-18T13:56:49;14.70;99.90
23729;DHT22;12045;60.214;24.724;2023-09-18T13:59:17;14.60;99.90
23729;DHT22;12045;60.214;24.724;2023-09-18T14:01:44;14.60;99.90
23729;DHT22;12045;60.214;24.724;2023-09-18T14:04:12;14.60;99.90
23729;DHT22;12045;60.214;24.724;2023-09-18T14:06:39;14.70;99.90
23729;DHT22;12045;60.214;24.724;2023-09-18T14:09:07;14.70;99.90
23729;DHT22;12045;60.214;24.724;2023-09-18T14:11:34;14.70;99.90
23729;DHT22;12045;60.214;24.724;2023-09-18T14:14:06;14.70;99.90
23729;DHT22;12045;60.214;24.724;2023-09-18T14:16:35;14.70;99.90
23729;DHT22;12045;60.214;24.724;2023-09-18T14:19:03;14.80;99.90
23729;DHT22;12045;60.214;24.724;2023-09-18T14:21:31;14.70;99.90
23729;DHT22;12045;60.214;24.724;2023-09-18T14:24:01;14.70;99.90
23729;DHT22;12045;60.214;24.724;2023-09-18T14:26:28;14.70;99.90
23729;DHT22;12045;60.214;24.724;2023-09-18T14:28:56;14.70;99.90
23729;DHT22;12045;60.214;24.724;2023-09-18T14:31:25;14.60;99.90
23729;DHT22;12045;60.214;24.724;2023-09-18T14:33:54;14.60;99.90
23729;DHT22;12045;60.214;24.724;2023-09-18T14:36:23;14.60;99.90
23729;DHT22;12045;60.214;24.724;2023-09-18T14:38:51;14.60;99.90
23729;DHT22;12045;60.214;24.724;2023-09-18T14:41:19;14.60;99.90
23729;DHT22;12045;60.214;24.724;2023-09-18T14:43:48;14.60;99.90
23729;DHT22;12045;60.214;24.724;2023-09-18T14:46:16;14.60;99.90
23729;DHT22;12045;60.214;24.724;2023-09-18T14:48:43;14.40;99.90
23729;DHT22;12045;60.214;24.724;2023-09-18T14:51:11;14.40;99.90
23729;DHT22;12045;60.214;24.724;2023-09-18T14:53:39;14.30;99.90
23729;DHT22;12045;60.214;24.724;2023-09-18T14:56:06;14.30;99.90
23729;DHT22;12045;60.214;24.724;2023-09-18T14:58:35;14.30;99.90
23729;DHT22;12045;60.214;24.724;2023-09-18T15:01:02;14.30;99.90
23729;DHT22;12045;60.214;24.724;2023-09-18T15:03:30;14.30;99.90
23729;DHT22;12045;60.214;24.724;2023-09-18T15:05:58;14.30;99.90
23729;DHT22;12045;60.214;24.724;2023-09-18T15:08:25;14.30;99.90
23729;DHT22;12045;60.214;24.724;2023-09-18T15:10:53;14.30;99.90
23729;DHT22;12045;60.214;24.724;2023-09-18T15:13:21;14.30;99.90
23729;DHT22;12045;60.214;24.724;2023-09-18T15:15:49;14.30;99.90
23729;DHT22;12045;60.214;24.724;2023-09-18T15:18:18;14.30;99.90
23729;DHT22;12045;60.214;24.724;2023-09-18T15:20:46;14.30;99.90
23729;DHT22;12045;60.214;24.724;2023-09-18T15:23:15;14.20;99.90
23729;DHT22;12045;60.214;24.724;2023-09-18T15:25:43;14.20;99.90
23729;DHT22;12045;60.214;24.724;2023-09-18T15:28:11;14.20;99.90
23729;DHT22;12045;60.214;24.724;2023-09-18T15:30:39;14.20;99.90
23729;DHT22;12045;60.214;24.724;2023-09-18T15:33:06;14.20;99.90
23729;DHT22;12045;60.214;24.724;2023-09-18T15:35:34;14.20;99.90
23729;DHT22;12045;60.214;24.724;2023-09-18T15:38:03;14.20;99.90
23729;DHT22;12045;60.214;24.724;2023-09-18T15:40:31;14.10;99.90
23729;DHT22;12045;60.214;24.724;2023-09-18T15:42:59;14.10;99.90
23729;DHT22;12045;60.214;24.724;2023-09-18T15:45:26;14.10;99.90
23729;DHT22;12045;60.214;24.724;2023-09-18T15:47:54;14.00;99.90
23729;DHT22;12045;60.214;24.724;2023-09-18T15:50:23;14.00;99.90
23729;DHT22;12045;60.214;24.724;2023-09-18T15:52:51;14.00;99.90
23729;DHT22;12045;60.214;24.724;2023-09-18T15:55:18;14.00;99.90
23729;DHT22;12045;60.214;24.724;2023-09-18T15:57:46;14.00;99.90
23729;DHT22;12045;60.214;24.724;2023-09-18T16:00:15;14.00;99.90
23729;DHT22;12045;60.214;24.724;2023-09-18T16:02:46;13.90;99.90